Terminal Aerodrome Forecast
Issued by NWS Jackson, MS

Home | Current Version | Previous Version | Text Only | Print | Product List | Glossary On
Versions: 1 2 3 4 5 6 7 8 9 10 11 12 13 14 15 16 17 18 19 20 21
102
FTUS44 KMEG 311501 AAC
TAFTUP
TAF AMD
KTUP 311501Z 3115/0112 VRB06KT P6SM VCTS SCT060CB BKN080
      TEMPO 3115/3116 4SM -TSRA BKN060CB
     FM312200 22005KT P6SM VCSH BKN050 BKN250
     FM010900 00000KT 3SM BR BCFG SCT010 BKN200=

USA.gov is the U.S. government's official web portal to all federal, state and local government web resources and services.